createdAt,value
2022-08-12T00:02:51.119Z,1.75
2022-08-12T00:13:12.223Z,2.28
2022-08-12T00:23:32.127Z,3.38
2022-08-12T00:33:52.868Z,2.20
2022-08-12T00:43:56.100Z,2.38
2022-08-12T00:53:57.650Z,2.22
2022-08-12T01:04:17.581Z,1.98
2022-08-12T01:14:19.299Z,2.13
2022-08-12T01:24:39.608Z,2.00
2022-08-12T01:35:02.163Z,2.15
2022-08-12T01:45:03.482Z,2.58
2022-08-12T01:55:06.866Z,1.98
2022-08-12T02:05:59.204Z,2.20
2022-08-12T02:16:03.009Z,2.20
2022-08-12T02:26:05.862Z,1.63
2022-08-12T02:36:07.274Z,2.50
2022-08-12T02:46:14.066Z,1.90
2022-08-12T02:56:17.360Z,2.83
2022-08-12T03:06:21.314Z,2.15
2022-08-12T03:16:22.577Z,2.17
2022-08-12T03:26:26.756Z,1.77
2022-08-12T03:36:28.268Z,2.03
2022-08-12T03:46:50.918Z,1.70
2022-08-12T03:57:11.009Z,1.70
2022-08-12T04:07:12.485Z,2.10
2022-08-12T04:17:14.363Z,2.10
2022-08-12T04:27:15.770Z,2.00
2022-08-12T04:37:17.091Z,2.00
2022-08-12T04:47:18.360Z,2.03
2022-08-12T04:57:19.586Z,2.30
2022-08-12T05:07:20.875Z,2.35
2022-08-12T05:17:28.107Z,2.20
2022-08-12T05:27:29.797Z,1.80
2022-08-12T05:37:35.294Z,2.10
2022-08-12T05:47:52.895Z,2.30
2022-08-12T05:57:55.597Z,1.63
2022-08-12T06:08:02.277Z,1.70
2022-08-12T06:18:14.078Z,1.90
2022-08-12T06:28:20.180Z,1.40
2022-08-12T06:38:22.022Z,1.55
2022-08-12T06:48:26.837Z,2.00
2022-08-12T06:58:28.554Z,1.25
2022-08-12T07:08:30.362Z,1.83
2022-08-12T07:18:34.639Z,1.10
2022-08-12T07:28:36.689Z,1.60
2022-08-12T07:38:38.768Z,1.40
2022-08-12T07:48:44.377Z,1.00
2022-08-12T07:58:48.466Z,0.95
2022-08-12T08:08:49.691Z,1.23
2022-08-12T08:18:52.016Z,1.20
2022-08-12T08:28:53.771Z,0.93
2022-08-12T08:38:58.354Z,1.10
2022-08-12T08:49:01.309Z,1.15
2022-08-12T08:59:02.617Z,1.00
2022-08-12T09:19:28.441Z,1.10
2022-08-12T09:30:10.472Z,1.00
2022-08-12T09:40:04.494Z,0.95
2022-08-12T09:50:20.330Z,1.00
2022-08-12T10:00:28.944Z,0.98
2022-08-12T10:10:31.823Z,1.20
2022-08-12T10:20:34.072Z,1.00
2022-08-12T10:30:40.259Z,0.68
2022-08-12T10:41:03.976Z,0.90
2022-08-12T10:51:51.991Z,0.82
2022-08-12T11:04:18.009Z,0.90
2022-08-12T11:12:34.990Z,0.90
2022-08-12T11:22:10.603Z,1.08
2022-08-12T11:32:12.883Z,1.00
2022-08-12T11:42:15.705Z,0.90
2022-08-12T11:52:36.691Z,0.80
2022-08-12T12:02:47.769Z,0.80
2022-08-12T12:12:50.163Z,0.80
2022-08-12T12:22:51.994Z,0.70
2022-08-12T12:32:53.812Z,0.73
2022-08-12T12:43:00.603Z,1.02
2022-08-12T12:53:03.791Z,0.63
2022-08-12T13:03:05.036Z,1.00
2022-08-12T13:14:07.449Z,0.80
2022-08-12T13:23:37.271Z,1.63
2022-08-12T13:34:33.244Z,0.80
2022-08-12T13:43:59.994Z,0.50
2022-08-12T13:54:06.010Z,0.90
2022-08-12T14:04:12.402Z,0.98
2022-08-12T14:14:13.839Z,0.88
2022-08-12T14:24:15.329Z,0.77
2022-08-12T14:34:18.197Z,0.90
2022-08-12T14:44:57.540Z,0.65
2022-08-12T15:06:03.420Z,1.03
2022-08-12T15:15:43.723Z,0.55
2022-08-12T15:25:47.826Z,1.00
2022-08-12T15:35:53.259Z,0.90
2022-08-12T15:45:55.551Z,0.80
2022-08-12T15:55:57.407Z,0.55
2022-08-12T16:06:11.213Z,2.38
2022-08-12T16:16:24.062Z,0.88
2022-08-12T16:26:32.226Z,2.08
2022-08-12T16:36:34.015Z,1.92
2022-08-12T16:46:37.559Z,1.20
2022-08-12T16:56:39.232Z,1.95
2022-08-12T17:06:52.651Z,1.20
2022-08-12T17:16:55.193Z,0.82
2022-08-12T17:26:57.487Z,1.83
2022-08-12T17:37:04.875Z,0.70
2022-08-12T17:57:15.967Z,1.00
2022-08-12T18:07:17.940Z,0.73
2022-08-12T18:17:21.302Z,0.75
2022-08-12T18:27:30.001Z,0.90
2022-08-12T18:37:41.800Z,1.65
2022-08-12T18:47:50.035Z,1.10
2022-08-12T18:58:06.368Z,0.60
2022-08-12T19:08:10.017Z,0.73
2022-08-12T19:18:13.649Z,0.63
2022-08-12T19:28:18.423Z,0.93
2022-08-12T19:38:31.067Z,0.90
2022-08-12T19:48:34.573Z,0.75
2022-08-12T19:58:35.972Z,0.68
2022-08-12T20:08:37.393Z,0.88
2022-08-12T20:18:44.656Z,0.80
2022-08-12T20:28:55.346Z,0.60
2022-08-12T20:38:56.806Z,0.65
2022-08-12T20:48:59.268Z,0.80
2022-08-12T20:59:01.465Z,0.80
2022-08-12T21:09:02.730Z,0.95
2022-08-12T21:19:08.176Z,1.40
2022-08-12T21:29:16.200Z,0.70
2022-08-12T21:39:21.225Z,2.05
2022-08-12T21:49:53.671Z,0.60
2022-08-12T21:59:44.051Z,1.17
2022-08-12T22:09:45.327Z,0.95
2022-08-12T22:19:49.552Z,1.23
2022-08-12T22:30:17.007Z,0.65
2022-08-12T22:40:20.784Z,0.77
2022-08-12T22:50:27.261Z,1.27
2022-08-12T23:00:29.142Z,0.63
2022-08-12T23:10:30.977Z,0.80
2022-08-12T23:20:34.540Z,0.35
2022-08-12T23:30:39.221Z,1.52
2022-08-12T23:40:40.596Z,0.73
2022-08-12T23:50:41.838Z,0.70
